Time;durP1;ratioP1;P1;durP2;ratioP2;P2;SDS_P1;SDS_P2;PMS_P1;PMS_P2;Temp;Humidity;BMP_temperature;BMP_pressure;BME280_temperature;BME280_humidity;BME280_pressure;Samples;Min_cycle;Max_cycle;Signal;HPM_P1;HPM_P2
2022/04/18 00:00:13;;;;;;;;;;;;;;;22.46;39.65;94736.94;2067386;28;1541;-63
2022/04/18 00:01:14;;;;;;;;;;;;;;;22.45;39.50;94742.53;2066801;28;1345;-62
2022/04/18 00:02:19;;;;;;;;;;;;;;;22.44;39.39;94746.25;2070249;28;1528;-64
2022/04/18 00:03:21;;;;;;;;;;;;;;;22.43;39.59;94745.44;2074222;28;1102;-62
2022/04/18 00:04:23;;;;;;;;;;;;;;;22.43;39.72;94734.75;2074733;28;1118;-63
2022/04/18 00:05:24;;;;;;;;;;;;;;;22.44;40.09;94740.91;2067320;28;1617;-61
2022/04/18 00:06:26;;;;;;;;;;;;;;;22.45;39.93;94738.00;2066510;28;1906;-61
2022/04/18 00:07:28;;;;;;;;;;;;;;;22.46;39.80;94741.50;2052290;28;1774;-61
2022/04/18 00:08:29;;;;;;;;;;;;;;;22.45;39.81;94743.38;2064127;28;1772;-64
2022/04/18 00:09:33;;;;;;;;;;;;;;;22.45;39.78;94743.38;2059146;28;1474;-62
2022/04/18 00:10:34;;;;;;;;;;;;;;;22.44;39.70;94731.00;2066681;28;1574;-64
2022/04/18 00:11:36;;;;;;;;;;;;;;;22.43;40.04;94740.09;2066389;28;1113;-68
2022/04/18 00:12:38;;;;;;;;;;;;;;;22.46;39.62;94734.28;2065734;28;1549;-64
2022/04/18 00:13:39;;;;;;;;;;;;;;;22.45;40.02;94731.81;2065514;28;1693;-66
2022/04/18 00:14:41;;;;;;;;;;;;;;;22.46;39.97;94739.63;2066583;28;1245;-65
2022/04/18 00:15:43;;;;;;;;;;;;;;;22.47;39.86;94735.91;2063720;28;1710;-64
2022/04/18 00:16:44;;;;;;;;;;;;;;;22.46;39.91;94733.47;2060755;28;1539;-63
2022/04/18 00:17:46;;;;;;;;;;;;;;;22.45;39.95;94732.66;2064796;28;1711;-63
2022/04/18 00:18:47;;;;;;;;;;;;;;;22.47;40.12;94735.09;2064986;28;1524;-64
2022/04/18 00:19:49;;;;;;;;;;;;;;;22.46;40.11;94728.91;2070179;28;1451;-67
2022/04/18 00:20:51;;;;;;;;;;;;;;;22.45;40.01;94727.31;2059720;28;1480;-64
2022/04/18 00:21:52;;;;;;;;;;;;;;;22.44;40.21;94736.38;2065686;28;1301;-63
2022/04/18 00:22:54;;;;;;;;;;;;;;;22.45;40.25;94727.31;2066273;28;1548;-64
2022/04/18 00:23:55;;;;;;;;;;;;;;;22.45;40.22;94724.63;2066244;28;1372;-64
2022/04/18 00:24:57;;;;;;;;;;;;;;;22.44;40.17;94725.66;2066781;28;1519;-64
2022/04/18 00:25:58;;;;;;;;;;;;;;;22.44;40.37;94725.66;2068786;28;1466;-64
2022/04/18 00:27:01;;;;;;;;;;;;;;;22.44;40.65;94727.53;2058668;28;1490;-62
2022/04/18 00:28:02;;;;;;;;;;;;;;;22.45;40.55;94727.31;2058361;28;1114;-63
2022/04/18 00:29:04;;;;;;;;;;;;;;;22.45;40.55;94724.63;2065424;28;1679;-63
2022/04/18 00:30:06;;;;;;;;;;;;;;;22.47;40.31;94733.22;2067079;28;1719;-63
2022/04/18 00:31:07;;;;;;;;;;;;;;;22.47;40.58;94722.50;2070296;28;1452;-65
2022/04/18 00:32:09;;;;;;;;;;;;;;;22.49;40.38;94724.97;2057847;28;1525;-66
2022/04/18 00:33:11;;;;;;;;;;;;;;;22.48;40.60;94726.00;2067300;28;1697;-64
2022/04/18 00:34:14;;;;;;;;;;;;;;;22.52;40.60;94728.00;2066283;28;1164;-63
2022/04/18 00:35:16;;;;;;;;;;;;;;;22.50;40.51;94719.38;2071683;28;1670;-63
2022/04/18 00:36:17;;;;;;;;;;;;;;;22.51;40.66;94720.22;2068889;28;1486;-62
2022/04/18 00:37:19;;;;;;;;;;;;;;;22.50;40.37;94724.72;2056975;28;1616;-61
2022/04/18 00:38:20;;;;;;;;;;;;;;;22.51;40.21;94728.25;2056730;28;1549;-61
2022/04/18 00:39:22;;;;;;;;;;;;;;;22.52;40.54;94722.63;2064918;28;1508;-61
2022/04/18 00:40:23;;;;;;;;;;;;;;;22.53;40.54;94729.63;2066360;28;1136;-62
2022/04/18 00:41:25;;;;;;;;;;;;;;;22.55;40.58;94730.22;2065915;28;1502;-63
2022/04/18 00:42:27;;;;;;;;;;;;;;;22.53;40.73;94740.31;2065485;28;1479;-62
2022/04/18 00:43:44;;;;;;;;;;;;;;;22.52;40.55;94728.00;2057991;28;1747;-61
2022/04/18 00:44:46;;;;;;;;;;;;;;;22.54;40.55;94728.59;2060858;28;1515;-61
2022/04/18 00:45:47;;;;;;;;;;;;;;;22.54;40.54;94728.59;2057165;28;1607;-63
2022/04/18 00:46:49;;;;;;;;;;;;;;;22.53;40.88;94726.94;2057941;28;1984;-62
2022/04/18 00:47:51;;;;;;;;;;;;;;;22.52;40.55;94722.63;2065882;28;1331;-61
2022/04/18 00:48:52;;;;;;;;;;;;;;;22.52;40.74;94724.50;2065397;28;1574;-62
2022/04/18 00:49:54;;;;;;;;;;;;;;;22.53;40.60;94724.25;2062561;28;1525;-62
2022/04/18 00:50:55;;;;;;;;;;;;;;;22.53;40.75;94718.09;2050046;28;1003;-62
2022/04/18 00:51:57;;;;;;;;;;;;;;;22.52;40.74;94722.63;2049749;28;1069;-61
2022/04/18 00:52:59;;;;;;;;;;;;;;;22.55;40.48;94726.72;2066331;28;1456;-62
2022/04/18 00:54:01;;;;;;;;;;;;;;;22.56;40.45;94733.69;2062425;28;1307;-63
2022/04/18 00:55:03;;;;;;;;;;;;;;;22.56;40.68;94723.81;2060574;28;1017;-62
2022/04/18 00:56:05;;;;;;;;;;;;;;;22.55;40.62;94727.53;2065988;28;1722;-63
2022/04/18 00:57:07;;;;;;;;;;;;;;;22.55;40.71;94722.19;2065224;28;1469;-62
2022/04/18 00:58:09;;;;;;;;;;;;;;;22.56;40.38;94729.19;2066209;28;1180;-61
2022/04/18 00:59:11;;;;;;;;;;;;;;;22.56;40.60;94717.63;2065463;28;1677;-62
2022/04/18 01:00:13;;;;;;;;;;;;;;;22.56;40.88;94718.47;2065507;28;1456;-62
2022/04/18 01:01:15;;;;;;;;;;;;;;;22.57;40.50;94720.09;2057215;28;1148;-62
2022/04/18 01:02:17;;;;;;;;;;;;;;;22.58;41.00;94726.25;2058742;28;1683;-65
2022/04/18 01:03:20;;;;;;;;;;;;;;;22.54;40.88;94720.56;2066096;28;1711;-64
2022/04/18 01:04:22;;;;;;;;;;;;;;;22.56;40.79;94721.16;2065412;28;1701;-65
2022/04/18 01:05:24;;;;;;;;;;;;;;;22.53;40.66;94716.22;2058162;28;1343;-66
2022/04/18 01:06:25;;;;;;;;;;;;;;;22.54;40.54;94714.41;2052510;28;1995;-66
2022/04/18 01:07:27;;;;;;;;;;;;;;;22.51;40.70;94710.31;2065478;28;1574;-67
2022/04/18 01:08:30;;;;;;;;;;;;;;;22.56;40.57;94713.13;2065779;28;1106;-66
2022/04/18 01:09:32;;;;;;;;;;;;;;;22.55;40.71;94718.69;2062216;28;1699;-66
2022/04/18 01:10:35;;;;;;;;;;;;;;;22.56;40.62;94713.13;2064831;28;1642;-66
2022/04/18 01:11:36;;;;;;;;;;;;;;;22.58;40.66;94708.31;2073688;28;998;-67
2022/04/18 01:12:41;;;;;;;;;;;;;;;22.57;40.64;94711.25;2068615;28;1488;-66
2022/04/18 01:13:43;;;;;;;;;;;;;;;22.57;40.92;94717.41;2065045;28;1673;-66
2022/04/18 01:14:48;;;;;;;;;;;;;;;22.56;40.71;94707.75;2065815;28;1059;-66
2022/04/18 01:15:53;;;;;;;;;;;;;;;22.56;40.61;94709.59;2065558;28;1106;-65
2022/04/18 01:16:54;;;;;;;;;;;;;;;22.55;40.70;94710.66;2061611;28;1117;-66
2022/04/18 01:17:57;;;;;;;;;;;;;;;22.55;40.57;94707.97;2061016;28;1106;-67
2022/04/18 01:18:58;;;;;;;;;;;;;;;22.57;40.91;94705.91;2066156;28;1042;-65
2022/04/18 01:20:00;;;;;;;;;;;;;;;22.56;40.54;94705.09;2065462;28;1634;-67
2022/04/18 01:21:03;;;;;;;;;;;;;;;22.58;40.79;94696.81;2056492;28;1464;-64
2022/04/18 01:22:04;;;;;;;;;;;;;;;22.57;40.71;94709.38;2056982;28;1519;-67
2022/04/18 01:23:09;;;;;;;;;;;;;;;22.58;40.64;94697.63;2070425;28;1711;-67
2022/04/18 01:29:32;;;;;;;;;;;;;;;22.54;40.51;94704.50;2053589;28;1072;-65
2022/04/18 01:30:34;;;;;;;;;;;;;;;22.55;40.38;94707.97;2062730;28;1765;-66
2022/04/18 01:31:38;;;;;;;;;;;;;;;22.54;40.79;94699.13;2057272;28;1118;-66
2022/04/18 01:32:40;;;;;;;;;;;;;;;22.55;40.57;94697.28;2060437;28;1512;-66
2022/04/18 01:33:42;;;;;;;;;;;;;;;22.54;40.77;94688.44;2066100;28;1543;-65
2022/04/18 01:34:43;;;;;;;;;;;;;;;22.55;40.79;94689.22;2065778;28;1452;-65
2022/04/18 01:35:45;;;;;;;;;;;;;;;22.54;40.38;94701.81;2065887;28;1680;-65
2022/04/18 01:36:47;;;;;;;;;;;;;;;22.54;40.73;94693.78;2064600;28;1464;-65
2022/04/18 01:37:48;;;;;;;;;;;;;;;22.55;40.57;94686.56;2064727;28;1531;-65
2022/04/18 01:38:50;;;;;;;;;;;;;;;22.54;40.44;94688.44;2065726;28;1566;-66
2022/04/18 01:39:52;;;;;;;;;;;;;;;22.56;40.71;94690.84;2061681;28;1171;-66
2022/04/18 01:40:53;;;;;;;;;;;;;;;22.54;40.85;94688.44;2061554;28;1513;-65
2022/04/18 01:41:55;;;;;;;;;;;;;;;22.53;40.85;94681.41;2068213;28;1526;-70
2022/04/18 01:42:57;;;;;;;;;;;;;;;22.52;40.94;94673.63;2065732;28;1041;-70
2022/04/18 01:43:58;;;;;;;;;;;;;;;22.54;40.76;94680.41;2067998;28;1480;-69
2022/04/18 01:45:00;;;;;;;;;;;;;;;22.56;40.54;94680.16;2072977;28;1593;-69
2022/04/18 01:46:01;;;;;;;;;;;;;;;22.55;40.85;94683.88;2072796;28;1097;-69
2022/04/18 01:47:03;;;;;;;;;;;;;;;22.54;40.85;94683.06;2058783;28;1902;-69
2022/04/18 01:48:05;;;;;;;;;;;;;;;22.55;40.92;94673.16;2057236;28;1097;-69
2022/04/18 01:49:07;;;;;;;;;;;;;;;22.54;41.07;94669.69;2065919;28;1041;-69
2022/04/18 01:50:08;;;;;;;;;;;;;;;22.55;40.80;94675.84;2056364;28;1506;-69
2022/04/18 01:51:10;;;;;;;;;;;;;;;22.55;40.86;94679.34;2051715;28;1461;-70
2022/04/18 01:52:12;;;;;;;;;;;;;;;22.57;41.02;94682.59;2061498;28;1106;-70
2022/04/18 01:53:13;;;;;;;;;;;;;;;22.55;41.03;94667.81;2073810;28;1772;-71
2022/04/18 01:54:15;;;;;;;;;;;;;;;22.52;41.31;94671.78;2066758;28;1445;-68
2022/04/18 01:55:16;;;;;;;;;;;;;;;22.53;41.01;94669.91;2064544;28;1938;-66
2022/04/18 01:56:18;;;;;;;;;;;;;;;22.52;41.00;94666.41;2065219;28;1464;-67
2022/04/18 01:57:19;;;;;;;;;;;;;;;22.50;41.40;94660.47;2065118;28;1665;-67
2022/04/18 01:58:21;;;;;;;;;;;;;;;22.53;41.13;94664.53;2064914;28;1700;-67
2022/04/18 01:59:23;;;;;;;;;;;;;;;22.52;41.13;94662.94;2056374;28;1534;-68
2022/04/18 02:00:24;;;;;;;;;;;;;;;22.55;41.17;94662.47;2056225;28;1584;-68
2022/04/18 02:01:26;;;;;;;;;;;;;;;22.53;41.19;94662.69;2064659;28;1653;-67
2022/04/18 02:02:28;;;;;;;;;;;;;;;22.54;41.22;94661.66;2056735;28;1528;-67
2022/04/18 02:03:30;;;;;;;;;;;;;;;22.56;41.18;94662.25;2052020;28;1478;-69
2022/04/18 02:04:31;;;;;;;;;;;;;;;22.54;41.13;94661.66;2065049;28;1465;-71
2022/04/18 02:05:33;;;;;;;;;;;;;;;22.52;41.39;94658.38;2065827;28;1018;-72
2022/04/18 02:06:35;;;;;;;;;;;;;;;22.51;41.44;94661.31;2064977;28;1483;-72
2022/04/18 02:07:36;;;;;;;;;;;;;;;22.54;41.20;94650.94;2056408;28;1985;-71
2022/04/18 02:08:38;;;;;;;;;;;;;;;22.55;41.29;94651.75;2056400;28;1555;-71
2022/04/18 02:09:40;;;;;;;;;;;;;;;22.51;41.36;94656.75;2064746;28;1325;-71
2022/04/18 02:10:41;;;;;;;;;;;;;;;22.54;41.11;94650.94;2058208;28;1744;-72
2022/04/18 02:11:43;;;;;;;;;;;;;;;22.53;41.30;94659.19;2066743;28;1680;-72
2022/04/18 02:12:44;;;;;;;;;;;;;;;22.55;41.32;94649.88;2056884;28;1013;-72
2022/04/18 02:13:46;;;;;;;;;;;;;;;22.55;41.34;94654.44;2052292;28;1249;-71
2022/04/18 02:14:47;;;;;;;;;;;;;;;22.52;41.19;94646.88;2060236;28;1324;-68
2022/04/18 02:15:49;;;;;;;;;;;;;;;22.54;41.35;94650.94;2056900;28;1403;-69
2022/04/18 02:16:51;;;;;;;;;;;;;;;22.52;41.29;94645.00;2057226;28;1494;-71
2022/04/18 02:17:52;;;;;;;;;;;;;;;22.53;41.30;94648.47;2063945;28;1552;-70
2022/04/18 02:18:54;;;;;;;;;;;;;;;22.53;41.23;94645.81;2065035;28;1164;-70
2022/04/18 02:19:56;;;;;;;;;;;;;;;22.52;41.26;94647.66;2064872;28;1102;-67
2022/04/18 02:20:57;;;;;;;;;;;;;;;22.52;41.23;94653.03;2068631;28;1681;-70
2022/04/18 02:21:59;;;;;;;;;;;;;;;22.52;41.37;94646.88;2065049;28;1784;-71
2022/04/18 02:23:00;;;;;;;;;;;;;;;22.55;41.17;94646.41;2055584;28;1445;-70
2022/04/18 02:24:02;;;;;;;;;;;;;;;22.54;41.12;94648.25;2056243;28;1557;-71
2022/04/18 02:25:04;;;;;;;;;;;;;;;22.56;41.20;94648.00;2061541;28;1009;-71
2022/04/18 02:26:06;;;;;;;;;;;;;;;22.53;41.16;94643.94;2058630;28;1506;-71
2022/04/18 02:27:08;;;;;;;;;;;;;;;22.54;41.32;94650.94;2065168;28;1530;-70
2022/04/18 02:28:09;;;;;;;;;;;;;;;22.56;41.45;94642.66;2058038;28;1122;-71
2022/04/18 02:29:11;;;;;;;;;;;;;;;22.56;41.20;94642.66;2058820;28;1125;-71
2022/04/18 02:30:13;;;;;;;;;;;;;;;22.54;41.17;94645.59;2067477;28;1555;-70
2022/04/18 02:31:14;;;;;;;;;;;;;;;22.55;41.28;94646.41;2059307;28;1003;-70
2022/04/18 02:33:36;;;;;;;;;;;;;;;22.51;41.33;94640.69;2061441;28;1528;-70
2022/04/18 02:34:38;;;;;;;;;;;;;;;22.51;41.32;94646.06;2065884;28;1635;-69
2022/04/18 02:35:39;;;;;;;;;;;;;;;22.51;41.04;94646.06;2059391;28;1536;-69
2022/04/18 02:36:41;;;;;;;;;;;;;;;22.52;41.03;94646.88;2046699;28;1218;-69
2022/04/18 02:37:43;;;;;;;;;;;;;;;22.55;41.20;94641.03;2053465;28;1062;-70
2022/04/18 02:38:44;;;;;;;;;;;;;;;22.52;41.47;94636.16;2058579;28;1489;-70
2022/04/18 02:39:46;;;;;;;;;;;;;;;22.51;40.95;94642.56;2058120;28;1473;-71
2022/04/18 02:40:48;;;;;;;;;;;;;;;22.52;41.03;94638.84;2071218;28;1748;-70
2022/04/18 02:41:49;;;;;;;;;;;;;;;22.51;41.23;94640.69;2072547;28;1533;-68
2022/04/18 02:42:51;;;;;;;;;;;;;;;22.52;41.10;94641.50;2066912;28;1118;-69
2022/04/18 02:43:52;;;;;;;;;;;;;;;22.49;41.17;94629.41;2066573;28;1439;-68
2022/04/18 02:44:54;;;;;;;;;;;;;;;22.50;41.38;94631.03;2057232;28;1710;-69
2022/04/18 02:45:55;;;;;;;;;;;;;;;22.48;41.22;94635.81;2058666;28;997;-68
2022/04/18 02:46:57;;;;;;;;;;;;;;;22.48;41.35;94634.97;2066517;28;1522;-68
2022/04/18 02:47:59;;;;;;;;;;;;;;;22.51;41.07;94631.84;2061636;28;2053;-68
2022/04/18 02:49:00;;;;;;;;;;;;;;;22.49;41.17;94626.72;2062461;28;1755;-69
2022/04/18 02:50:02;;;;;;;;;;;;;;;22.49;41.30;94632.06;2052440;28;1787;-68
2022/04/18 02:51:04;;;;;;;;;;;;;;;22.51;41.00;94632.66;2052048;28;1524;-66
2022/04/18 02:52:06;;;;;;;;;;;;;;;22.51;41.13;94630.00;2066919;28;1730;-67
2022/04/18 02:53:08;;;;;;;;;;;;;;;22.54;41.05;94636.75;2067964;28;1440;-66
2022/04/18 02:54:09;;;;;;;;;;;;;;;22.50;41.22;94636.38;2065838;28;1542;-66
2022/04/18 02:55:11;;;;;;;;;;;;;;;22.49;41.33;94633.94;2067243;28;1027;-67
2022/04/18 02:56:13;;;;;;;;;;;;;;;22.51;41.16;94632.66;2065967;28;1490;-67
2022/04/18 02:57:15;;;;;;;;;;;;;;;22.48;41.29;94630.47;2067001;28;1032;-68
2022/04/18 02:58:16;;;;;;;;;;;;;;;22.48;41.30;94629.63;2066999;28;1189;-64
2022/04/18 02:59:18;;;;;;;;;;;;;;;22.48;41.39;94629.63;2053282;28;1117;-66
2022/04/18 03:00:20;;;;;;;;;;;;;;;22.48;41.51;94632.28;2053433;28;1462;-67
2022/04/18 03:01:22;;;;;;;;;;;;;;;22.50;41.42;94630.22;2066941;28;1053;-71
2022/04/18 03:02:23;;;;;;;;;;;;;;;22.48;41.63;94630.47;2067416;28;1705;-69
2022/04/18 03:03:25;;;;;;;;;;;;;;;22.49;41.11;94632.06;2069341;28;1538;-70
2022/04/18 03:04:27;;;;;;;;;;;;;;;22.47;41.24;94620.78;2066486;28;1776;-70
2022/04/18 03:05:29;;;;;;;;;;;;;;;22.51;41.64;94630.00;2057694;28;1096;-72
2022/04/18 03:06:30;;;;;;;;;;;;;;;20.03;27.41;94621.78;2057612;28;1664;-71
2022/04/18 03:07:32;;;;;;;;;;;;;;;17.78;27.63;94629.44;2058123;28;1321;-72
2022/04/18 03:08:34;;;;;;;;;;;;;;;16.57;29.31;94626.56;2067184;28;1082;-72
2022/04/18 03:09:35;;;;;;;;;;;;;;;15.53;30.32;94632.47;2070502;28;1524;-72
2022/04/18 03:11:57;;;;;;;;;;;;;;;14.32;32.14;94633.88;2061745;28;1500;-70
2022/04/18 03:12:59;;;;;;;;;;;;;;;14.22;32.54;94633.31;2067326;28;1744;-72
2022/04/18 03:14:01;;;;;;;;;;;;;;;14.05;33.22;94636.16;2060330;28;1673;-72
2022/04/18 03:15:03;;;;;;;;;;;;;;;13.88;33.33;94633.81;2066408;28;1149;-71
2022/04/18 03:16:05;;;;;;;;;;;;;;;14.10;33.27;94629.50;2067604;28;1521;-72
2022/04/18 03:17:07;;;;;;;;;;;;;;;13.96;33.27;94634.56;2066537;28;1620;-71
2022/04/18 03:18:08;;;;;;;;;;;;;;;13.80;33.50;94635.53;2066807;28;1110;-71
2022/04/18 03:19:10;;;;;;;;;;;;;;;13.66;33.70;94633.69;2067048;28;1034;-72
2022/04/18 03:20:11;;;;;;;;;;;;;;;13.59;34.19;94630.91;2066708;28;1487;-73
2022/04/18 03:21:14;;;;;;;;;;;;;;;13.57;34.49;94632.94;2069623;28;1480;-72
2022/04/18 03:22:16;;;;;;;;;;;;;;;13.43;34.69;94633.66;2052660;28;1676;-69
2022/04/18 03:23:23;;;;;;;;;;;;;;;13.64;34.29;94633.03;2058839;28;1118;-73
2022/04/18 03:24:25;;;;;;;;;;;;;;;13.42;34.28;94637.28;2065567;28;1526;-73
2022/04/18 03:25:26;;;;;;;;;;;;;;;13.20;34.39;94631.00;2066774;28;1060;-72
2022/04/18 03:26:28;;;;;;;;;;;;;;;12.69;35.53;94630.63;2058134;28;1048;-73
2022/04/18 03:27:30;;;;;;;;;;;;;;;12.36;36.08;94632.56;2057261;28;1511;-73
2022/04/18 03:28:32;;;;;;;;;;;;;;;12.47;35.88;94642.75;2059514;28;1899;-74
2022/04/18 03:29:35;;;;;;;;;;;;;;;12.45;36.13;94635.00;2065630;28;1993;-72
2022/04/18 03:30:37;;;;;;;;;;;;;;;12.53;35.92;94633.34;2067395;28;1526;-72
2022/04/18 03:31:39;;;;;;;;;;;;;;;12.74;35.55;94625.66;2068864;28;1703;-72
2022/04/18 03:32:41;;;;;;;;;;;;;;;12.40;35.74;94632.03;2068305;28;1605;-73
2022/04/18 03:33:42;;;;;;;;;;;;;;;12.49;36.03;94628.41;2057544;28;1555;-73
2022/04/18 03:34:44;;;;;;;;;;;;;;;12.70;35.30;94630.44;2065768;28;1822;-73
2022/04/18 03:39:51;;;;;;;;;;;;;;;12.35;36.67;94639.66;2068226;28;1553;-65
2022/04/18 03:40:52;;;;;;;;;;;;;;;12.45;36.39;94634.19;2060614;28;1697;-65
2022/04/18 03:41:54;;;;;;;;;;;;;;;12.91;37.16;94631.66;2057944;28;1671;-70
2022/04/18 03:42:55;;;;;;;;;;;;;;;13.33;36.20;94622.50;2070717;28;1539;-70
2022/04/18 03:43:57;;;;;;;;;;;;;;;13.67;35.37;94626.56;2065530;28;1431;-66
2022/04/18 03:45:00;;;;;;;;;;;;;;;13.52;35.24;94629.19;2066405;28;1438;-66
2022/04/18 03:46:01;;;;;;;;;;;;;;;13.31;35.75;94620.03;2067571;28;1639;-67
2022/04/18 03:47:03;;;;;;;;;;;;;;;13.09;36.17;94618.22;2056867;28;1773;-67
2022/04/18 03:48:05;;;;;;;;;;;;;;;13.16;36.04;94617.34;2057978;28;1934;-68
2022/04/18 03:49:06;;;;;;;;;;;;;;;13.18;35.94;94620.63;2066292;28;1459;-67
2022/04/18 03:50:08;;;;;;;;;;;;;;;13.14;35.60;94622.00;2066242;28;1495;-68
2022/04/18 03:51:10;;;;;;;;;;;;;;;13.21;35.30;94623.94;2066340;28;1021;-66
2022/04/18 03:52:11;;;;;;;;;;;;;;;12.89;35.47;94631.03;2057162;28;1623;-65
2022/04/18 03:53:13;;;;;;;;;;;;;;;12.88;35.35;94626.75;2056966;28;1450;-68
2022/04/18 03:54:14;;;;;;;;;;;;;;;12.56;36.04;94635.63;2057397;28;1637;-67
2022/04/18 03:55:16;;;;;;;;;;;;;;;12.63;35.84;94636.56;2064017;28;1700;-67
2022/04/18 03:56:18;;;;;;;;;;;;;;;12.57;35.88;94638.06;2057465;28;1400;-66
2022/04/18 03:57:19;;;;;;;;;;;;;;;12.45;36.36;94631.53;2060147;28;1315;-67
2022/04/18 03:58:21;;;;;;;;;;;;;;;12.34;36.51;94637.19;2065954;28;1102;-65
2022/04/18 03:59:23;;;;;;;;;;;;;;;12.38;36.31;94639.31;2064118;28;1266;-65
2022/04/18 04:00:24;;;;;;;;;;;;;;;12.37;36.39;94636.84;2066139;28;1276;-66
2022/04/18 04:01:26;;;;;;;;;;;;;;;12.19;36.81;94637.03;2066272;28;1070;-69
2022/04/18 04:02:27;;;;;;;;;;;;;;;13.23;36.67;94635.94;2072944;28;1674;-68
2022/04/18 04:03:29;;;;;;;;;;;;;;;14.50;35.17;94631.69;2065795;28;1273;-66
2022/04/18 04:04:31;;;;;;;;;;;;;;;15.44;34.29;94632.81;2066416;28;1069;-72
2022/04/18 04:05:32;;;;;;;;;;;;;;;16.16;33.49;94639.75;2066311;28;1831;-69
2022/04/18 04:06:34;;;;;;;;;;;;;;;16.72;32.91;94637.88;2064143;28;1122;-65
2022/04/18 04:07:35;;;;;;;;;;;;;;;17.13;32.54;94639.72;2060837;28;1109;-71
2022/04/18 04:08:37;;;;;;;;;;;;;;;17.45;32.23;94642.69;2061614;28;1985;-66
2022/04/18 04:09:38;;;;;;;;;;;;;;;17.70;31.71;94642.09;2062946;28;1526;-66
2022/04/18 04:10:40;;;;;;;;;;;;;;;17.85;32.07;94650.75;2067360;28;1681;-66
2022/04/18 04:11:41;;;;;;;;;;;;;;;17.95;32.02;94647.66;2066033;28;1083;-65
2022/04/18 04:12:43;;;;;;;;;;;;;;;18.06;31.92;94647.88;2066525;28;1017;-66
2022/04/18 04:13:45;;;;;;;;;;;;;;;18.14;31.98;94646.84;2065804;28;1107;-66
2022/04/18 04:14:46;;;;;;;;;;;;;;;18.19;31.82;94638.28;2066356;28;1106;-65
2022/04/18 04:15:48;;;;;;;;;;;;;;;18.31;31.69;94640.09;2066282;28;1093;-62
2022/04/18 04:16:49;;;;;;;;;;;;;;;18.41;31.98;94641.50;2066520;28;1068;-61
2022/04/18 04:17:51;;;;;;;;;;;;;;;18.49;32.18;94642.09;2065702;28;1464;-61
2022/04/18 04:18:53;;;;;;;;;;;;;;;18.58;31.96;94639.22;2061771;28;1106;-67
2022/04/18 04:19:57;;;;;;;;;;;;;;;18.64;32.35;94630.44;2060076;28;1656;-66
2022/04/18 04:20:58;;;;;;;;;;;;;;;18.68;32.38;94632.47;2057301;28;1292;-66
2022/04/18 04:22:00;;;;;;;;;;;;;;;18.71;32.38;94636.56;2057611;28;1056;-66
2022/04/18 04:23:02;;;;;;;;;;;;;;;18.73;32.62;94634.53;2066017;28;1063;-66
2022/04/18 04:24:04;;;;;;;;;;;;;;;18.75;32.49;94637.78;2066235;28;1505;-66
2022/04/18 04:25:05;;;;;;;;;;;;;;;18.81;32.45;94641.44;2066311;28;1073;-66
2022/04/18 04:26:07;;;;;;;;;;;;;;;18.83;32.59;94629.56;2057020;28;1092;-66
2022/04/18 04:27:09;;;;;;;;;;;;;;;18.86;32.51;94637.13;2057888;28;1179;-66
2022/04/18 04:28:11;;;;;;;;;;;;;;;18.89;32.26;94638.56;2065728;28;1021;-66
2022/04/18 04:29:12;;;;;;;;;;;;;;;18.92;32.31;94638.97;2065580;28;1894;-66
2022/04/18 04:30:14;;;;;;;;;;;;;;;18.96;32.17;94644.69;2063974;28;1644;-65
2022/04/18 04:31:15;;;;;;;;;;;;;;;18.99;32.41;94637.09;2069139;28;1133;-65
2022/04/18 04:32:17;;;;;;;;;;;;;;;19.05;32.29;94642.59;2073721;28;1030;-65
2022/04/18 04:33:19;;;;;;;;;;;;;;;19.07;32.33;94637.91;2073605;28;1089;-66
2022/04/18 04:34:20;;;;;;;;;;;;;;;19.08;32.43;94642.19;2073632;28;1078;-66
2022/04/18 04:35:22;;;;;;;;;;;;;;;19.13;32.19;94640.53;2064430;28;1248;-65
2022/04/18 04:36:23;;;;;;;;;;;;;;;19.16;32.48;94644.63;2064913;28;1033;-66
2022/04/18 04:37:25;;;;;;;;;;;;;;;19.19;32.43;94641.53;2073592;28;1183;-66
2022/04/18 04:38:26;;;;;;;;;;;;;;;19.20;32.54;94645.81;2073478;28;1101;-66
2022/04/18 04:39:28;;;;;;;;;;;;;;;19.22;32.39;94644.56;2073726;28;993;-66
2022/04/18 04:40:30;;;;;;;;;;;;;;;19.26;32.33;94644.16;2073507;28;1108;-66
2022/04/18 04:41:32;;;;;;;;;;;;;;;19.28;32.40;94648.25;2068813;28;1090;-66
2022/04/18 04:42:34;;;;;;;;;;;;;;;19.30;32.36;94643.53;2060341;28;1115;-67
2022/04/18 04:43:35;;;;;;;;;;;;;;;19.33;32.61;94644.94;2056430;28;1264;-67
2022/04/18 04:44:37;;;;;;;;;;;;;;;19.34;32.44;94646.56;2065847;28;1069;-68
2022/04/18 04:45:38;;;;;;;;;;;;;;;19.37;32.46;94646.16;2074387;28;1022;-68
2022/04/18 04:46:40;;;;;;;;;;;;;;;19.38;32.57;94648.59;2065308;28;1097;-68
2022/04/18 04:47:43;;;;;;;;;;;;;;;19.41;32.42;94647.38;2065691;28;1190;-69
2022/04/18 04:48:45;;;;;;;;;;;;;;;19.43;32.52;94645.28;2074323;28;1903;-68
2022/04/18 04:49:46;;;;;;;;;;;;;;;19.45;32.44;94641.38;2064908;28;1052;-67
2022/04/18 04:50:48;;;;;;;;;;;;;;;19.47;32.44;94641.19;2065323;28;1297;-68
2022/04/18 04:51:49;;;;;;;;;;;;;;;19.49;32.64;94648.94;2074217;28;1048;-67
2022/04/18 04:52:51;;;;;;;;;;;;;;;19.51;32.58;94641.56;2070087;28;1180;-67
2022/04/18 04:53:52;;;;;;;;;;;;;;;19.52;32.61;94643.19;2069560;28;1121;-68
2022/04/18 04:54:54;;;;;;;;;;;;;;;19.55;32.54;94645.47;2074349;28;1034;-68
2022/04/18 04:55:55;;;;;;;;;;;;;;;19.57;32.41;94651.41;2074100;28;998;-69
2022/04/18 04:56:57;;;;;;;;;;;;;;;19.58;32.71;94648.53;2073998;28;1098;-67
2022/04/18 04:57:58;;;;;;;;;;;;;;;19.59;32.45;94647.50;2064821;28;1172;-68
2022/04/18 04:59:03;;;;;;;;;;;;;;;19.62;32.45;94648.91;2065625;28;1106;-68
2022/04/18 05:00:04;;;;;;;;;;;;;;;19.62;32.69;94647.06;2074025;28;1164;-68
2022/04/18 05:01:07;;;;;;;;;;;;;;;19.63;32.67;94646.03;2065597;28;1121;-69
2022/04/18 05:02:08;;;;;;;;;;;;;;;19.65;32.62;94648.47;2057603;28;1086;-69
2022/04/18 05:03:13;;;;;;;;;;;;;;;19.66;32.57;94650.09;2065646;28;1017;-68
2022/04/18 05:04:15;;;;;;;;;;;;;;;19.66;32.67;94650.94;2068929;28;1110;-68
2022/04/18 05:05:16;;;;;;;;;;;;;;;19.69;32.52;94649.69;2069160;28;1200;-68
2022/04/18 05:06:18;;;;;;;;;;;;;;;19.70;32.79;94646.00;2065532;28;978;-68
2022/04/18 05:07:19;;;;;;;;;;;;;;;19.71;32.53;94647.63;2065554;28;1193;-68
2022/04/18 05:08:21;;;;;;;;;;;;;;;19.73;32.47;94650.09;2065487;28;1084;-68
2022/04/18 05:09:22;;;;;;;;;;;;;;;19.73;32.54;94645.56;2065563;28;1906;-70
2022/04/18 05:10:24;;;;;;;;;;;;;;;19.74;32.77;94647.19;2074105;28;1674;-68
2022/04/18 05:11:26;;;;;;;;;;;;;;;19.77;32.68;94649.41;2074173;28;1064;-68
2022/04/18 05:12:30;;;;;;;;;;;;;;;19.78;32.60;94644.94;2065121;28;1045;-68
2022/04/18 05:13:32;;;;;;;;;;;;;;;19.79;32.75;94650.03;2065818;28;1186;-68
2022/04/18 05:14:34;;;;;;;;;;;;;;;19.82;32.70;94651.44;2065383;28;1145;-69
2022/04/18 05:15:36;;;;;;;;;;;;;;;19.82;32.66;94641.59;2061011;28;1501;-68
2022/04/18 05:16:37;;;;;;;;;;;;;;;19.76;32.48;94639.81;2068943;28;1141;-69
2022/04/18 05:17:39;;;;;;;;;;;;;;;19.83;32.69;94645.91;2073851;28;1545;-68
2022/04/18 05:18:41;;;;;;;;;;;;;;;19.86;32.53;94652.63;2065250;28;1267;-68
2022/04/18 05:19:42;;;;;;;;;;;;;;;19.86;32.55;94650.81;2065398;28;1026;-68
2022/04/18 05:20:44;;;;;;;;;;;;;;;19.87;32.41;94651.63;2073930;28;1650;-68
2022/04/18 05:21:46;;;;;;;;;;;;;;;19.88;32.73;94648.72;2065387;28;1283;-69
2022/04/18 05:22:50;;;;;;;;;;;;;;;19.88;32.75;94648.72;2065415;28;1437;-68
2022/04/18 05:23:51;;;;;;;;;;;;;;;19.89;32.69;94655.72;2074060;28;1611;-68
2022/04/18 05:24:55;;;;;;;;;;;;;;;19.91;32.69;94646.66;2074100;28;1117;-68
2022/04/18 05:25:56;;;;;;;;;;;;;;;19.93;32.51;94650.75;2074025;28;1088;-68
2022/04/18 05:26:58;;;;;;;;;;;;;;;19.93;32.55;94648.09;2069556;28;1564;-68
2022/04/18 05:28:00;;;;;;;;;;;;;;;19.94;32.75;94649.72;2059938;28;1608;-68
2022/04/18 05:29:01;;;;;;;;;;;;;;;19.96;32.59;94647.66;2065642;28;1988;-66
2022/04/18 05:30:04;;;;;;;;;;;;;;;19.96;32.53;94653.00;2072521;28;1172;-67
2022/04/18 05:31:05;;;;;;;;;;;;;;;19.97;32.68;94651.94;2065996;28;1214;-67
2022/04/18 05:32:07;;;;;;;;;;;;;;;19.99;32.67;94651.75;2057144;28;1529;-67
2022/04/18 05:33:09;;;;;;;;;;;;;;;19.99;32.54;94654.41;2057419;28;998;-68
2022/04/18 05:34:11;;;;;;;;;;;;;;;19.99;32.72;94662.41;2065665;28;1106;-67
2022/04/18 05:35:12;;;;;;;;;;;;;;;20.00;32.84;94656.03;2065572;28;1056;-67
2022/04/18 05:36:14;;;;;;;;;;;;;;;20.00;32.58;94653.38;2065945;28;1493;-67
2022/04/18 05:37:15;;;;;;;;;;;;;;;20.01;32.37;94653.16;2065799;28;1030;-66
2022/04/18 05:38:17;;;;;;;;;;;;;;;20.02;32.55;94659.31;2061434;28;1082;-67